createdAt,value
2019-05-14T00:00:10.890Z,7.40
2019-05-14T00:02:32.051Z,7.40
2019-05-14T00:04:51.874Z,7.70
2019-05-14T00:07:12.122Z,7.80
2019-05-14T00:09:32.272Z,7.90
2019-05-14T00:11:52.182Z,8.00
2019-05-14T00:14:12.127Z,8.20
2019-05-14T00:16:34.074Z,8.30
2019-05-14T00:18:53.772Z,8.40
2019-05-14T00:21:13.653Z,8.50
2019-05-14T00:23:33.523Z,8.50
2019-05-14T00:25:53.734Z,8.30
2019-05-14T00:28:14.646Z,8.30
2019-05-14T00:30:34.731Z,8.40
2019-05-14T00:32:54.472Z,8.30
2019-05-14T00:35:14.758Z,8.20
2019-05-14T00:37:35.133Z,8.30
2019-05-14T00:39:55.862Z,8.30
2019-05-14T00:42:16.268Z,8.40
2019-05-14T00:44:36.242Z,8.40
2019-05-14T00:46:56.234Z,8.20
2019-05-14T00:49:16.382Z,7.90
2019-05-14T00:51:36.293Z,8.10
2019-05-14T00:53:56.669Z,8.30
2019-05-14T00:56:16.258Z,8.20
2019-05-14T00:58:36.258Z,8.20
2019-05-14T01:00:56.350Z,8.00
2019-05-14T01:03:15.969Z,7.50
2019-05-14T01:05:35.844Z,7.50
2019-05-14T01:07:55.542Z,7.40
2019-05-14T01:10:15.467Z,7.30
2019-05-14T01:12:35.254Z,7.40
2019-05-14T01:15:07.032Z,7.40
2019-05-14T01:17:17.188Z,7.50
2019-05-14T01:19:37.216Z,7.60
2019-05-14T01:21:57.051Z,7.60
2019-05-14T01:24:16.717Z,7.70
2019-05-14T01:26:36.581Z,7.60
2019-05-14T01:28:56.474Z,7.70
2019-05-14T01:31:16.627Z,7.70
2019-05-14T01:33:36.370Z,7.80
2019-05-14T01:35:56.545Z,7.70
2019-05-14T01:38:16.502Z,7.70
2019-05-14T01:40:36.345Z,7.80
2019-05-14T01:42:56.244Z,7.80
2019-05-14T01:45:25.123Z,7.80
2019-05-14T01:47:38.336Z,7.90
2019-05-14T01:49:58.169Z,7.80
2019-05-14T01:52:18.063Z,7.80
2019-05-14T01:54:38.195Z,7.90
2019-05-14T01:57:01.901Z,7.80
2019-05-14T01:59:21.629Z,7.70
2019-05-14T02:01:41.899Z,7.80
2019-05-14T02:04:02.430Z,8.00
2019-05-14T02:06:22.630Z,8.10
2019-05-14T02:08:42.610Z,8.20
2019-05-14T02:11:02.736Z,8.30
2019-05-14T02:13:22.648Z,8.30
2019-05-14T02:15:43.168Z,8.30
2019-05-14T02:18:03.309Z,8.20
2019-05-14T02:20:23.624Z,8.20
2019-05-14T02:22:43.730Z,8.10
2019-05-14T02:25:06.105Z,8.10
2019-05-14T02:27:26.252Z,7.90
2019-05-14T02:29:45.842Z,7.90
2019-05-14T02:32:05.614Z,8.00
2019-05-14T02:34:25.762Z,7.80
2019-05-14T02:36:45.517Z,7.70
2019-05-14T02:39:09.781Z,7.40
2019-05-14T02:41:29.838Z,7.20
2019-05-14T02:43:50.226Z,7.10
2019-05-14T02:46:16.219Z,7.10
2019-05-14T02:48:32.166Z,7.10
2019-05-14T02:50:52.404Z,7.10
2019-05-14T02:53:13.010Z,7.10
2019-05-14T02:55:32.770Z,7.10
2019-05-14T02:57:52.968Z,7.20
2019-05-14T03:00:13.566Z,7.10
2019-05-14T03:02:34.059Z,7.10
2019-05-14T03:04:54.129Z,7.20
2019-05-14T03:07:13.896Z,7.20
2019-05-14T03:09:33.781Z,7.20
2019-05-14T03:11:53.409Z,7.20
2019-05-14T03:14:13.433Z,7.10
2019-05-14T03:16:35.843Z,7.10
2019-05-14T03:18:55.221Z,7.20
2019-05-14T03:21:15.278Z,7.10
2019-05-14T03:23:35.434Z,7.10
2019-05-14T03:25:55.422Z,7.10
2019-05-14T03:28:15.025Z,7.10
2019-05-14T03:30:34.948Z,7.10
2019-05-14T03:32:55.110Z,7.10
2019-05-14T03:35:15.178Z,7.10
2019-05-14T03:37:34.943Z,7.00
2019-05-14T03:39:55.015Z,7.00
2019-05-14T03:42:15.034Z,7.10
2019-05-14T03:44:35.157Z,7.20
2019-05-14T03:47:00.233Z,7.30
2019-05-14T03:49:19.833Z,7.50
2019-05-14T03:51:39.694Z,7.60
2019-05-14T03:54:05.938Z,7.40
2019-05-14T03:56:21.735Z,7.50
2019-05-14T03:58:41.875Z,7.60
2019-05-14T04:01:02.169Z,7.60
2019-05-14T04:03:22.834Z,7.40
2019-05-14T04:05:43.438Z,7.20
2019-05-14T04:08:03.468Z,7.10
2019-05-14T04:10:23.965Z,7.10
2019-05-14T04:12:49.258Z,7.00
2019-05-14T04:15:09.791Z,6.90
2019-05-14T04:17:37.412Z,6.90
2019-05-14T04:19:59.962Z,6.90
2019-05-14T04:22:22.818Z,6.90
2019-05-14T04:24:49.409Z,7.00
2019-05-14T04:27:12.713Z,7.30
2019-05-14T04:29:30.901Z,7.40
2019-05-14T04:31:54.301Z,7.70
2019-05-14T04:34:15.122Z,7.70
2019-05-14T04:36:35.177Z,7.60
2019-05-14T04:38:55.594Z,7.70
2019-05-14T04:41:19.379Z,7.70
2019-05-14T04:43:40.053Z,7.70
2019-05-14T04:46:00.166Z,7.80
2019-05-14T04:48:31.323Z,7.80
2019-05-14T04:50:42.317Z,7.80
2019-05-14T04:53:02.740Z,7.70
2019-05-14T04:55:22.878Z,7.80
2019-05-14T04:57:43.206Z,7.70
2019-05-14T05:00:04.623Z,7.80
2019-05-14T05:02:24.845Z,7.90
2019-05-14T05:04:50.298Z,8.00
2019-05-14T05:07:09.895Z,8.00
2019-05-14T05:09:29.511Z,8.10
2019-05-14T05:11:50.166Z,8.10
2019-05-14T05:14:10.370Z,8.20
2019-05-14T05:16:30.373Z,8.20
2019-05-14T05:18:50.214Z,8.30
2019-05-14T05:21:10.315Z,8.30
2019-05-14T05:23:30.421Z,8.50
2019-05-14T05:25:50.639Z,8.60
2019-05-14T05:28:10.454Z,8.60
2019-05-14T05:30:30.606Z,8.70
2019-05-14T05:32:50.585Z,8.70
2019-05-14T05:35:10.691Z,8.60
2019-05-14T05:37:30.552Z,8.60
2019-05-14T05:39:50.482Z,8.70
2019-05-14T05:42:10.223Z,8.70
2019-05-14T05:44:29.847Z,8.70
2019-05-14T05:46:49.853Z,8.80
2019-05-14T05:49:09.775Z,8.80
2019-05-14T05:51:29.951Z,8.80
2019-05-14T05:53:50.445Z,8.90
2019-05-14T05:56:10.326Z,8.90
2019-05-14T05:58:30.369Z,8.90
2019-05-14T06:00:50.303Z,8.90
2019-05-14T06:03:11.266Z,8.90
2019-05-14T06:05:32.049Z,9.00
2019-05-14T06:07:52.176Z,8.90
2019-05-14T06:10:12.658Z,9.10
2019-05-14T06:12:32.489Z,9.10
2019-05-14T06:14:52.565Z,9.20
2019-05-14T06:17:12.817Z,9.40
2019-05-14T06:19:33.101Z,9.40
2019-05-14T06:21:53.222Z,9.40
2019-05-14T06:24:13.268Z,9.50
2019-05-14T06:26:33.154Z,9.60
2019-05-14T06:28:53.152Z,9.60
2019-05-14T06:31:14.175Z,9.60
2019-05-14T06:33:34.266Z,9.50
2019-05-14T06:35:54.281Z,9.50
2019-05-14T06:38:15.109Z,9.50
2019-05-14T06:40:35.236Z,9.60
2019-05-14T06:42:55.583Z,9.60
2019-05-14T06:45:18.520Z,9.70
2019-05-14T06:47:38.254Z,9.60
2019-05-14T06:49:59.220Z,9.60
2019-05-14T06:52:19.540Z,9.80
2019-05-14T06:54:39.666Z,9.70
2019-05-14T06:56:59.598Z,9.80
2019-05-14T06:59:19.669Z,9.80
2019-05-14T07:01:40.143Z,9.80
2019-05-14T07:04:00.041Z,9.90
2019-05-14T07:06:20.032Z,10.00
2019-05-14T07:08:40.138Z,10.10
2019-05-14T07:11:00.273Z,10.10
2019-05-14T07:13:20.453Z,10.30
2019-05-14T07:15:40.289Z,10.40
2019-05-14T07:18:00.253Z,10.40
2019-05-14T07:20:20.130Z,10.40
2019-05-14T07:22:40.097Z,10.40
2019-05-14T07:24:59.880Z,10.40
2019-05-14T07:27:19.825Z,10.50
2019-05-14T07:29:39.689Z,10.60
2019-05-14T07:32:00.594Z,10.70
2019-05-14T07:34:20.325Z,10.80
2019-05-14T07:36:40.049Z,10.80
2019-05-14T07:39:00.487Z,10.90
2019-05-14T07:41:20.321Z,11.00
2019-05-14T07:43:39.968Z,11.10
2019-05-14T07:46:00.089Z,11.10
2019-05-14T07:48:19.880Z,11.20
2019-05-14T07:50:40.090Z,11.10
2019-05-14T07:53:03.075Z,11.20
2019-05-14T07:55:22.018Z,11.30
2019-05-14T07:57:42.598Z,11.30
2019-05-14T08:00:08.304Z,11.50
2019-05-14T08:02:28.954Z,11.60
2019-05-14T08:04:49.673Z,11.80
2019-05-14T08:07:09.783Z,11.80
2019-05-14T08:09:29.780Z,11.90
2019-05-14T08:11:49.801Z,12.10
2019-05-14T08:14:09.621Z,12.20
2019-05-14T08:16:29.327Z,12.30
2019-05-14T08:18:49.333Z,12.30
2019-05-14T08:21:09.641Z,12.40
2019-05-14T08:23:29.543Z,12.50
2019-05-14T08:25:49.721Z,12.60
2019-05-14T08:28:10.492Z,12.70
2019-05-14T08:30:30.426Z,12.80
2019-05-14T08:32:50.516Z,12.80
2019-05-14T08:35:10.753Z,13.00
2019-05-14T08:37:30.749Z,13.10
2019-05-14T08:39:50.760Z,13.10
2019-05-14T08:42:10.973Z,13.20
2019-05-14T08:44:30.666Z,13.30
2019-05-14T08:46:50.870Z,13.40
2019-05-14T08:49:11.870Z,13.50
2019-05-14T08:51:32.056Z,13.60
2019-05-14T08:53:52.065Z,13.70
2019-05-14T08:56:12.309Z,13.70
2019-05-14T08:58:35.156Z,13.90
2019-05-14T09:00:55.018Z,14.10
2019-05-14T09:03:15.118Z,14.40
2019-05-14T09:05:34.997Z,14.70
2019-05-14T09:07:54.733Z,14.90
2019-05-14T09:10:15.087Z,15.00
2019-05-14T09:12:34.973Z,15.20
2019-05-14T09:14:54.409Z,15.10
2019-05-14T09:17:14.882Z,15.30
2019-05-14T09:19:35.021Z,15.10
2019-05-14T09:21:54.701Z,15.20
2019-05-14T09:24:14.885Z,15.30
2019-05-14T09:26:35.262Z,15.40
2019-05-14T09:28:54.797Z,15.30
2019-05-14T09:31:14.666Z,15.20
2019-05-14T09:33:34.256Z,15.20
2019-05-14T09:36:09.917Z,15.00
2019-05-14T09:38:15.482Z,14.80
2019-05-14T09:40:35.291Z,14.70
2019-05-14T09:42:55.046Z,14.90
2019-05-14T09:45:15.229Z,15.20
2019-05-14T09:47:34.881Z,15.30
2019-05-14T09:49:54.816Z,15.40
2019-05-14T09:52:14.651Z,15.60
2019-05-14T09:54:34.273Z,15.70
2019-05-14T09:56:54.056Z,16.00
2019-05-14T09:59:14.690Z,16.10
2019-05-14T10:01:34.360Z,16.40
2019-05-14T10:03:54.184Z,16.50
2019-05-14T10:06:14.459Z,16.20
2019-05-14T10:08:34.514Z,16.40
2019-05-14T10:10:54.515Z,16.50
2019-05-14T10:13:14.099Z,16.60
2019-05-14T10:15:33.610Z,16.70
2019-05-14T10:17:53.361Z,16.90
2019-05-14T10:20:13.609Z,17.10
2019-05-14T10:22:33.124Z,17.40
2019-05-14T10:24:53.124Z,17.50
2019-05-14T10:27:13.561Z,17.60
2019-05-14T10:29:33.456Z,17.00
2019-05-14T10:31:53.501Z,17.00
2019-05-14T10:34:13.429Z,17.20
2019-05-14T10:36:33.164Z,17.40
2019-05-14T10:38:53.356Z,17.40
2019-05-14T10:41:13.321Z,17.40
2019-05-14T10:43:33.419Z,17.50
2019-05-14T10:45:53.308Z,17.70
2019-05-14T10:48:13.105Z,17.50
2019-05-14T10:50:33.034Z,17.40
2019-05-14T10:52:52.828Z,17.70
2019-05-14T10:55:12.597Z,17.90
2019-05-14T10:57:32.101Z,18.10
2019-05-14T10:59:51.894Z,17.80
2019-05-14T11:02:12.170Z,18.10
2019-05-14T11:04:34.493Z,18.00
2019-05-14T11:06:53.837Z,18.10
2019-05-14T11:09:13.306Z,18.20
2019-05-14T11:11:33.050Z,18.30
2019-05-14T11:13:53.041Z,18.20
2019-05-14T11:16:12.562Z,18.00
2019-05-14T11:18:32.082Z,18.00
2019-05-14T11:20:51.912Z,18.10
2019-05-14T11:23:11.449Z,18.20
2019-05-14T11:25:31.292Z,18.10
2019-05-14T11:27:51.105Z,18.10
2019-05-14T11:30:10.900Z,17.80
2019-05-14T11:32:31.298Z,18.20
2019-05-14T11:34:51.017Z,18.60
2019-05-14T11:37:11.716Z,19.10
2019-05-14T11:39:31.904Z,19.70
2019-05-14T11:41:52.217Z,20.10
2019-05-14T11:44:11.898Z,20.60
2019-05-14T11:46:43.846Z,20.90
2019-05-14T11:48:54.162Z,21.40
2019-05-14T11:51:14.182Z,21.70
2019-05-14T11:53:33.943Z,21.70
2019-05-14T11:55:53.877Z,21.60
2019-05-14T11:58:13.524Z,21.20
2019-05-14T12:00:33.133Z,20.90
2019-05-14T12:02:53.489Z,20.50
2019-05-14T12:05:13.579Z,20.20
2019-05-14T12:07:33.157Z,20.40
2019-05-14T12:09:52.765Z,20.80
2019-05-14T12:12:12.932Z,20.90
2019-05-14T12:14:33.087Z,20.80
2019-05-14T12:16:53.171Z,20.70
2019-05-14T12:19:13.057Z,20.50
2019-05-14T12:21:33.142Z,20.60
2019-05-14T12:23:52.934Z,20.60
2019-05-14T12:26:13.985Z,20.20
2019-05-14T12:28:33.704Z,19.90
2019-05-14T12:30:53.677Z,20.00
2019-05-14T12:33:13.181Z,20.20
2019-05-14T12:35:32.822Z,20.70
2019-05-14T12:37:52.670Z,21.20
2019-05-14T12:40:12.982Z,21.30
2019-05-14T12:42:33.084Z,21.30
2019-05-14T12:44:53.108Z,21.20
2019-05-14T12:47:12.975Z,21.20
2019-05-14T12:49:33.329Z,21.50
2019-05-14T12:51:52.886Z,21.70
2019-05-14T12:54:12.563Z,21.80
2019-05-14T12:56:32.407Z,22.20
2019-05-14T12:58:52.218Z,22.80
2019-05-14T13:01:12.089Z,23.10
2019-05-14T13:03:31.994Z,23.40
2019-05-14T13:05:52.244Z,23.30
2019-05-14T13:08:11.813Z,23.00
2019-05-14T13:10:31.870Z,22.70
2019-05-14T13:12:51.549Z,22.30
2019-05-14T13:15:11.235Z,21.80
2019-05-14T13:17:31.221Z,21.20
2019-05-14T13:19:51.200Z,20.90
2019-05-14T13:22:15.112Z,20.70
2019-05-14T13:24:32.966Z,20.50
2019-05-14T13:26:53.023Z,20.60
2019-05-14T13:29:12.652Z,20.90
2019-05-14T13:31:32.533Z,21.30
2019-05-14T13:33:52.216Z,21.70
2019-05-14T13:36:12.067Z,22.30
2019-05-14T13:38:31.905Z,22.90
2019-05-14T13:40:52.025Z,23.30
2019-05-14T13:43:14.350Z,23.50
2019-05-14T13:45:34.310Z,23.70
2019-05-14T13:47:54.619Z,24.10
2019-05-14T13:50:14.853Z,24.50
2019-05-14T13:52:34.996Z,24.90
2019-05-14T13:54:54.887Z,25.30
2019-05-14T13:57:15.101Z,25.70
2019-05-14T13:59:35.181Z,25.80
2019-05-14T14:01:55.217Z,25.80
2019-05-14T14:04:15.321Z,25.60
2019-05-14T14:06:35.954Z,25.60
2019-05-14T14:08:59.091Z,25.10
2019-05-14T14:11:19.366Z,24.30
2019-05-14T14:13:39.429Z,23.90
2019-05-14T14:15:59.206Z,23.50
2019-05-14T14:18:21.030Z,23.20
2019-05-14T14:20:42.241Z,22.50
2019-05-14T14:23:17.664Z,22.20
2019-05-14T14:25:25.080Z,22.10
2019-05-14T14:27:45.441Z,22.50
2019-05-14T14:30:09.340Z,22.70
2019-05-14T14:32:28.562Z,22.80
2019-05-14T14:34:48.462Z,23.30
2019-05-14T14:37:08.889Z,23.90
2019-05-14T14:39:29.138Z,24.60
2019-05-14T14:41:49.242Z,25.00
2019-05-14T14:44:09.310Z,24.90
2019-05-14T14:46:29.220Z,24.60
2019-05-14T14:48:49.656Z,24.90
2019-05-14T14:51:10.297Z,25.10
2019-05-14T14:53:43.126Z,25.50
2019-05-14T14:55:52.787Z,24.90
2019-05-14T14:58:12.571Z,24.00
2019-05-14T15:00:32.477Z,23.60
2019-05-14T15:02:52.844Z,24.10
2019-05-14T15:05:14.322Z,24.60
2019-05-14T15:07:34.955Z,25.00
2019-05-14T15:09:55.537Z,25.50
2019-05-14T15:12:15.406Z,25.90
2019-05-14T15:14:35.436Z,26.10
2019-05-14T15:16:55.252Z,26.50
2019-05-14T15:19:15.476Z,26.40
2019-05-14T15:21:35.757Z,26.20
2019-05-14T15:24:07.184Z,26.10
2019-05-14T15:26:19.129Z,26.20
2019-05-14T15:28:38.772Z,25.70
2019-05-14T15:30:59.574Z,26.10
2019-05-14T15:33:19.885Z,26.60
2019-05-14T15:35:39.720Z,26.50
2019-05-14T15:37:59.913Z,26.40
2019-05-14T15:40:22.377Z,26.20
2019-05-14T15:42:41.285Z,26.20
2019-05-14T15:45:00.701Z,26.10
2019-05-14T15:47:20.666Z,26.30
2019-05-14T15:49:40.438Z,26.40
2019-05-14T15:52:00.721Z,26.40
2019-05-14T15:54:36.152Z,26.30
2019-05-14T15:56:41.740Z,26.00
2019-05-14T15:59:02.112Z,26.20
2019-05-14T16:01:21.985Z,26.10
2019-05-14T16:03:41.905Z,26.40
2019-05-14T16:06:01.669Z,26.90
2019-05-14T16:08:22.883Z,27.20
2019-05-14T16:10:42.977Z,27.40
2019-05-14T16:13:03.822Z,27.10
2019-05-14T16:15:24.329Z,26.80
2019-05-14T16:17:50.586Z,26.80
2019-05-14T16:20:05.505Z,26.90
2019-05-14T16:22:25.124Z,27.00
2019-05-14T16:24:56.198Z,27.10
2019-05-14T16:27:08.394Z,27.30
2019-05-14T16:29:40.297Z,27.30
2019-05-14T16:31:50.142Z,27.30
2019-05-14T16:34:10.174Z,27.30
2019-05-14T16:36:29.773Z,27.20
2019-05-14T16:38:50.089Z,27.00
2019-05-14T16:41:09.982Z,27.20
2019-05-14T16:43:32.415Z,27.10
2019-05-14T16:45:51.907Z,27.00
2019-05-14T16:48:11.969Z,27.00
2019-05-14T16:50:32.861Z,27.00
2019-05-14T16:52:52.703Z,27.10
2019-05-14T16:55:23.523Z,27.10
2019-05-14T16:57:34.268Z,27.10
2019-05-14T16:59:54.084Z,26.50
2019-05-14T17:02:14.407Z,25.90
2019-05-14T17:04:34.287Z,25.50
2019-05-14T17:06:54.221Z,25.50
2019-05-14T17:09:13.678Z,25.50
2019-05-14T17:11:33.555Z,25.30
2019-05-14T17:13:53.315Z,24.60
2019-05-14T17:16:13.595Z,24.00
2019-05-14T17:18:33.836Z,23.10
2019-05-14T17:20:53.666Z,22.60
2019-05-14T17:23:13.721Z,21.90
2019-05-14T17:25:34.118Z,21.20
2019-05-14T17:27:54.410Z,20.90
2019-05-14T17:30:14.821Z,20.70
2019-05-14T17:32:34.933Z,20.10
2019-05-14T17:34:54.754Z,19.90
2019-05-14T17:37:14.477Z,19.80
2019-05-14T17:39:34.614Z,19.80
2019-05-14T17:41:54.404Z,19.60
2019-05-14T17:44:14.154Z,19.50
2019-05-14T17:46:34.033Z,19.20
2019-05-14T17:48:53.542Z,19.10
2019-05-14T17:51:13.585Z,19.00
2019-05-14T17:53:33.680Z,18.90
2019-05-14T17:55:53.102Z,18.60
2019-05-14T17:58:13.334Z,18.50
2019-05-14T18:00:33.312Z,18.30
2019-05-14T18:02:52.862Z,18.00
2019-05-14T18:05:12.813Z,17.90
2019-05-14T18:07:32.846Z,17.80
2019-05-14T18:09:52.911Z,17.70
2019-05-14T18:12:13.245Z,17.60
2019-05-14T18:14:33.142Z,17.50
2019-05-14T18:16:53.628Z,17.20
2019-05-14T18:19:14.097Z,17.20
2019-05-14T18:21:34.450Z,17.20
2019-05-14T18:23:54.827Z,17.00
2019-05-14T18:26:14.461Z,17.10
2019-05-14T18:28:34.521Z,17.10
2019-05-14T18:30:55.018Z,16.90
2019-05-14T18:33:14.590Z,16.90
2019-05-14T18:35:34.305Z,16.90
2019-05-14T18:37:54.572Z,16.80
2019-05-14T18:40:14.711Z,16.80
2019-05-14T18:42:34.462Z,16.80
2019-05-14T18:44:54.397Z,16.70
2019-05-14T18:47:16.772Z,16.60
2019-05-14T18:49:36.079Z,16.50
2019-05-14T18:51:55.774Z,16.60
2019-05-14T18:54:15.293Z,16.40
2019-05-14T18:56:38.223Z,16.30
2019-05-14T18:58:57.036Z,16.30
2019-05-14T19:01:19.483Z,16.30
2019-05-14T19:03:39.853Z,16.30
2019-05-14T19:06:00.898Z,16.20
2019-05-14T19:08:20.886Z,16.10
2019-05-14T19:10:41.253Z,15.90
2019-05-14T19:13:01.744Z,15.60
2019-05-14T19:15:21.633Z,15.50
2019-05-14T19:17:42.155Z,15.30
2019-05-14T19:20:02.762Z,15.40
2019-05-14T19:22:22.368Z,15.20
2019-05-14T19:24:42.300Z,15.10
2019-05-14T19:27:02.294Z,14.80
2019-05-14T19:29:22.030Z,14.80
2019-05-14T19:31:42.040Z,14.80
2019-05-14T19:34:01.995Z,14.60
2019-05-14T19:36:22.777Z,14.50
2019-05-14T19:38:42.597Z,14.40
2019-05-14T19:41:02.390Z,14.40
2019-05-14T19:43:24.143Z,14.30
2019-05-14T19:45:44.047Z,14.30
2019-05-14T19:48:03.705Z,14.10
2019-05-14T19:50:24.436Z,14.10
2019-05-14T19:52:44.427Z,14.00
2019-05-14T19:55:05.062Z,13.90
2019-05-14T19:57:25.397Z,13.90
2019-05-14T19:59:45.582Z,13.90
2019-05-14T20:02:05.830Z,13.90
2019-05-14T20:04:26.187Z,14.00
2019-05-14T20:06:46.361Z,14.10
2019-05-14T20:09:06.391Z,14.10
2019-05-14T20:11:28.764Z,13.90
2019-05-14T20:13:49.026Z,14.00
2019-05-14T20:16:09.214Z,13.90
2019-05-14T20:18:29.152Z,13.90
2019-05-14T20:20:49.431Z,13.80
2019-05-14T20:23:09.358Z,13.80
2019-05-14T20:25:29.126Z,13.80
2019-05-14T20:27:49.013Z,13.80
2019-05-14T20:30:09.402Z,13.70
2019-05-14T20:32:29.449Z,13.70
2019-05-14T20:34:49.339Z,13.60
2019-05-14T20:37:09.208Z,13.50
2019-05-14T20:39:31.629Z,13.40
2019-05-14T20:41:51.289Z,13.20
2019-05-14T20:44:12.394Z,13.30
2019-05-14T20:46:32.301Z,13.20
2019-05-14T20:48:52.650Z,13.00
2019-05-14T20:51:12.410Z,13.00
2019-05-14T20:53:32.208Z,13.00
2019-05-14T20:55:52.026Z,12.90
2019-05-14T20:58:11.824Z,12.70
2019-05-14T21:00:31.861Z,12.80
2019-05-14T21:02:51.555Z,12.70
2019-05-14T21:05:13.780Z,12.70
2019-05-14T21:07:33.681Z,12.80
2019-05-14T21:09:53.736Z,12.90
2019-05-14T21:12:13.680Z,12.90
2019-05-14T21:14:33.385Z,12.90
2019-05-14T21:16:53.862Z,12.80
2019-05-14T21:19:13.696Z,12.80
2019-05-14T21:21:38.355Z,12.80
2019-05-14T21:23:58.780Z,12.80
2019-05-14T21:26:19.409Z,12.80
2019-05-14T21:28:40.013Z,12.80
2019-05-14T21:31:01.749Z,12.80
2019-05-14T21:33:21.612Z,12.80
2019-05-14T21:35:41.727Z,12.70
2019-05-14T21:38:01.891Z,12.60
2019-05-14T21:40:21.765Z,12.50
2019-05-14T21:42:41.689Z,12.40
2019-05-14T21:45:02.034Z,12.30
2019-05-14T21:47:21.831Z,12.20
2019-05-14T21:49:41.663Z,12.10
2019-05-14T21:52:01.877Z,12.10
2019-05-14T21:54:21.873Z,12.00
2019-05-14T21:56:41.998Z,12.00
2019-05-14T21:59:02.734Z,11.90
2019-05-14T22:01:23.031Z,11.90
2019-05-14T22:03:43.165Z,11.80
2019-05-14T22:06:03.322Z,11.80
2019-05-14T22:08:23.584Z,11.70
2019-05-14T22:10:43.414Z,11.70
2019-05-14T22:13:03.515Z,11.60
2019-05-14T22:15:23.838Z,11.30
2019-05-14T22:17:44.216Z,11.20
2019-05-14T22:20:08.114Z,11.00
2019-05-14T22:22:30.842Z,11.10
2019-05-14T22:24:50.806Z,11.00
2019-05-14T22:27:11.214Z,11.00
2019-05-14T22:29:31.320Z,10.80
2019-05-14T22:31:51.400Z,10.50
2019-05-14T22:34:11.565Z,10.70
2019-05-14T22:36:31.456Z,10.70
2019-05-14T22:38:51.268Z,10.70
2019-05-14T22:41:11.558Z,10.80
2019-05-14T22:43:31.593Z,10.80
2019-05-14T22:45:51.540Z,10.80
2019-05-14T22:48:12.677Z,10.80
2019-05-14T22:50:32.467Z,10.80
2019-05-14T22:52:52.509Z,10.80
2019-05-14T22:55:12.165Z,10.80
2019-05-14T22:57:32.017Z,10.70
2019-05-14T22:59:51.704Z,10.70
2019-05-14T23:02:12.018Z,10.50
2019-05-14T23:04:31.721Z,10.50
2019-05-14T23:06:52.247Z,10.40
2019-05-14T23:09:12.426Z,10.40
2019-05-14T23:11:32.138Z,10.40
2019-05-14T23:13:52.113Z,10.20
2019-05-14T23:16:12.457Z,10.20
2019-05-14T23:18:33.148Z,10.00
2019-05-14T23:20:53.208Z,10.10
2019-05-14T23:23:13.153Z,10.00
2019-05-14T23:25:32.780Z,10.10
2019-05-14T23:27:53.094Z,10.00
2019-05-14T23:30:13.045Z,10.00
2019-05-14T23:32:33.454Z,9.90
2019-05-14T23:34:53.364Z,9.90
2019-05-14T23:37:13.198Z,9.80
2019-05-14T23:39:33.152Z,9.80
2019-05-14T23:41:53.660Z,9.70
2019-05-14T23:44:14.021Z,9.60
2019-05-14T23:46:33.802Z,9.60
2019-05-14T23:48:53.798Z,9.60
2019-05-14T23:51:13.746Z,9.50
2019-05-14T23:53:33.769Z,9.40
2019-05-14T23:55:53.985Z,9.50
2019-05-14T23:58:14.422Z,9.40
